createdAt,value
2018-05-21T00:01:09.650Z,17.70
2018-05-21T00:03:13.892Z,17.80
2018-05-21T00:05:17.373Z,17.70
2018-05-21T00:07:21.669Z,17.20
2018-05-21T00:09:25.941Z,17.10
2018-05-21T00:11:30.231Z,16.90
2018-05-21T00:13:33.731Z,16.90
2018-05-21T00:15:37.261Z,17.10
2018-05-21T00:17:40.896Z,17.20
2018-05-21T00:19:45.143Z,17.10
2018-05-21T00:21:48.643Z,17.00
2018-05-21T00:23:52.138Z,17.10
2018-05-21T00:25:55.625Z,17.40
2018-05-21T00:27:59.226Z,17.20
2018-05-21T00:30:02.749Z,16.90
2018-05-21T00:32:06.224Z,17.10
2018-05-21T00:34:09.769Z,17.30
2018-05-21T00:36:14.089Z,17.40
2018-05-21T00:38:18.917Z,17.50
2018-05-21T00:40:23.226Z,17.50
2018-05-21T00:42:27.667Z,17.40
2018-05-21T00:44:31.147Z,17.40
2018-05-21T00:46:34.684Z,17.50
2018-05-21T00:48:38.705Z,17.30
2018-05-21T00:50:43.205Z,17.20
2018-05-21T00:52:46.689Z,17.40
2018-05-21T00:55:02.327Z,17.20
2018-05-21T00:57:06.052Z,16.90
2018-05-21T00:59:10.169Z,17.20
2018-05-21T01:01:14.458Z,17.30
2018-05-21T01:03:17.949Z,17.30
2018-05-21T01:05:22.472Z,17.20
2018-05-21T01:07:26.781Z,16.50
2018-05-21T01:09:31.593Z,16.60
2018-05-21T01:11:35.343Z,16.60
2018-05-21T01:13:39.350Z,16.70
2018-05-21T01:15:43.569Z,17.00
2018-05-21T01:17:47.128Z,17.00
2018-05-21T01:19:50.736Z,16.90
2018-05-21T01:21:54.267Z,16.00
2018-05-21T01:23:57.763Z,15.30
2018-05-21T01:26:02.259Z,15.30
2018-05-21T01:28:05.754Z,15.10
2018-05-21T01:30:09.271Z,15.20
2018-05-21T01:32:13.433Z,14.90
2018-05-21T01:34:16.929Z,14.80
2018-05-21T01:36:20.706Z,15.20
2018-05-21T01:38:24.212Z,14.80
2018-05-21T01:40:27.847Z,14.70
2018-05-21T01:42:31.652Z,14.90
2018-05-21T01:44:35.258Z,14.90
2018-05-21T01:46:48.612Z,15.10
2018-05-21T01:48:54.516Z,14.70
2018-05-21T01:50:58.237Z,14.80
2018-05-21T01:53:01.994Z,14.60
2018-05-21T01:55:06.330Z,14.50
2018-05-21T01:57:10.044Z,14.50
2018-05-21T01:59:14.094Z,14.80
2018-05-21T02:01:19.293Z,14.80
2018-05-21T02:03:22.939Z,14.70
2018-05-21T02:05:27.283Z,14.40
2018-05-21T02:07:30.868Z,14.40
2018-05-21T02:09:34.853Z,14.40
2018-05-21T02:11:38.408Z,14.60
2018-05-21T02:13:42.186Z,14.80
2018-05-21T02:15:45.684Z,14.80
2018-05-21T02:17:50.158Z,14.50
2018-05-21T02:19:53.638Z,14.40
2018-05-21T02:21:57.130Z,14.30
2018-05-21T02:24:00.650Z,14.60
2018-05-21T02:26:04.173Z,14.60
2018-05-21T02:28:08.385Z,14.50
2018-05-21T02:30:11.971Z,14.90
2018-05-21T02:32:16.984Z,14.80
2018-05-21T02:34:20.704Z,14.70
2018-05-21T02:36:24.294Z,14.30
2018-05-21T02:38:27.954Z,14.30
2018-05-21T02:40:32.220Z,14.80
2018-05-21T02:42:35.824Z,14.80
2018-05-21T02:44:39.650Z,14.70
2018-05-21T02:46:43.897Z,14.60
2018-05-21T02:48:47.803Z,14.50
2018-05-21T02:50:52.146Z,14.80
2018-05-21T02:52:55.640Z,14.80
2018-05-21T02:55:00.200Z,14.40
2018-05-21T02:57:04.088Z,14.60
2018-05-21T02:59:08.071Z,14.30
2018-05-21T03:01:11.568Z,14.70
2018-05-21T03:03:15.742Z,13.80
2018-05-21T03:05:20.160Z,14.30
2018-05-21T03:07:23.667Z,14.30
2018-05-21T03:09:27.865Z,14.30
2018-05-21T03:11:32.203Z,14.10
2018-05-21T03:13:35.885Z,14.10
2018-05-21T03:15:39.473Z,14.20
2018-05-21T03:17:42.950Z,14.20
2018-05-21T03:19:46.585Z,14.10
2018-05-21T03:21:50.057Z,14.00
2018-05-21T03:23:53.655Z,14.00
2018-05-21T03:25:57.986Z,13.80
2018-05-21T03:28:01.745Z,13.80
2018-05-21T03:30:07.622Z,13.90
2018-05-21T03:32:11.114Z,13.90
2018-05-21T03:34:15.410Z,13.60
2018-05-21T03:36:19.220Z,13.70
2018-05-21T03:38:23.493Z,13.80
2018-05-21T03:40:27.241Z,13.80
2018-05-21T03:42:31.762Z,13.70
2018-05-21T03:44:36.055Z,13.90
2018-05-21T03:46:39.787Z,13.90
2018-05-21T03:48:43.910Z,14.00
2018-05-21T03:50:47.509Z,13.90
2018-05-21T03:52:51.547Z,13.90
2018-05-21T03:54:55.390Z,13.90
2018-05-21T03:56:59.681Z,14.00
2018-05-21T03:59:15.062Z,14.00
2018-05-21T04:01:31.148Z,14.30
2018-05-21T04:03:46.758Z,14.40
2018-05-21T04:05:50.299Z,14.50
2018-05-21T04:07:54.729Z,13.90
2018-05-21T04:09:58.474Z,13.90
2018-05-21T04:12:02.321Z,13.70
2018-05-21T04:14:06.467Z,14.00
2018-05-21T04:16:11.245Z,14.00
2018-05-21T04:18:14.787Z,14.00
2018-05-21T04:20:18.351Z,14.10
2018-05-21T04:22:22.667Z,14.00
2018-05-21T04:24:27.630Z,14.20
2018-05-21T04:26:32.475Z,14.30
2018-05-21T04:28:36.058Z,14.30
2018-05-21T04:30:40.193Z,14.30
2018-05-21T04:32:44.469Z,14.10
2018-05-21T04:34:54.418Z,13.80
2018-05-21T04:36:59.994Z,14.00
2018-05-21T04:39:04.327Z,13.90
2018-05-21T04:41:09.141Z,13.70
2018-05-21T04:43:14.233Z,13.70
2018-05-21T04:45:18.751Z,14.00
2018-05-21T04:47:22.469Z,14.20
2018-05-21T04:49:27.582Z,14.00
2018-05-21T04:51:33.067Z,13.80
2018-05-21T04:53:37.742Z,13.80
2018-05-21T04:55:44.081Z,14.00
2018-05-21T04:57:48.465Z,14.10
2018-05-21T04:59:53.068Z,14.20
2018-05-21T05:01:58.120Z,14.00
2018-05-21T05:04:03.118Z,14.00
2018-05-21T05:06:09.234Z,13.80
2018-05-21T05:08:13.064Z,13.80
2018-05-21T05:10:23.617Z,13.80
2018-05-21T05:12:29.927Z,13.70
2018-05-21T05:14:33.812Z,13.90
2018-05-21T05:16:37.686Z,13.90
2018-05-21T05:18:41.179Z,13.90
2018-05-21T05:20:46.516Z,13.90
2018-05-21T05:22:50.532Z,13.80
2018-05-21T05:24:54.941Z,14.00
2018-05-21T05:26:58.637Z,14.00
2018-05-21T05:29:02.957Z,13.90
2018-05-21T05:31:08.188Z,14.00
2018-05-21T05:33:12.602Z,14.30
2018-05-21T05:35:17.125Z,14.40
2018-05-21T05:37:23.402Z,14.40
2018-05-21T05:39:28.492Z,14.60
2018-05-21T05:41:32.744Z,14.80
2018-05-21T05:43:36.835Z,14.90
2018-05-21T05:45:41.226Z,14.70
2018-05-21T05:47:46.712Z,14.60
2018-05-21T05:49:51.001Z,14.50
2018-05-21T05:51:54.947Z,14.50
2018-05-21T05:53:58.526Z,14.60
2018-05-21T05:56:02.429Z,14.60
2018-05-21T05:58:06.099Z,14.60
2018-05-21T06:00:10.331Z,14.80
2018-05-21T06:02:15.141Z,14.80
2018-05-21T06:04:19.385Z,15.10
2018-05-21T06:06:31.115Z,15.10
2018-05-21T06:08:36.336Z,15.00
2018-05-21T06:10:41.408Z,15.20
2018-05-21T06:12:46.467Z,15.20
2018-05-21T06:14:50.959Z,15.20
2018-05-21T06:16:55.669Z,15.30
2018-05-21T06:19:00.433Z,15.30
2018-05-21T06:21:04.939Z,15.30
2018-05-21T06:23:08.528Z,15.40
2018-05-21T06:25:14.047Z,15.30
2018-05-21T06:27:18.496Z,15.40
2018-05-21T06:29:23.633Z,15.40
2018-05-21T06:31:29.250Z,15.50
2018-05-21T06:33:34.541Z,15.60
2018-05-21T06:35:39.599Z,15.60
2018-05-21T06:37:43.545Z,15.70
2018-05-21T06:39:47.052Z,15.80
2018-05-21T06:41:50.987Z,15.90
2018-05-21T06:43:54.519Z,15.90
2018-05-21T06:45:58.800Z,16.00
2018-05-21T06:48:02.312Z,15.90
2018-05-21T06:50:05.812Z,16.00
2018-05-21T06:52:09.382Z,16.20
2018-05-21T06:54:13.154Z,16.20
2018-05-21T06:56:16.612Z,16.30
2018-05-21T06:58:20.833Z,16.40
2018-05-21T07:00:24.402Z,16.40
2018-05-21T07:02:28.680Z,16.40
2018-05-21T07:04:32.181Z,16.40
2018-05-21T07:06:35.797Z,16.50
2018-05-21T07:08:39.282Z,16.60
2018-05-21T07:10:42.770Z,16.60
2018-05-21T07:12:46.272Z,16.80
2018-05-21T07:14:49.756Z,16.70
2018-05-21T07:16:53.338Z,16.70
2018-05-21T07:18:57.615Z,16.80
2018-05-21T07:21:01.108Z,16.70
2018-05-21T07:23:04.637Z,16.90
2018-05-21T07:25:08.139Z,17.00
2018-05-21T07:27:11.683Z,17.20
2018-05-21T07:29:17.057Z,17.10
2018-05-21T07:31:21.863Z,17.20
2018-05-21T07:33:25.356Z,17.20
2018-05-21T07:35:29.667Z,17.40
2018-05-21T07:37:33.134Z,17.40
2018-05-21T07:39:37.474Z,17.60
2018-05-21T07:41:40.990Z,17.60
2018-05-21T07:43:44.467Z,17.60
2018-05-21T07:45:48.831Z,17.70
2018-05-21T07:47:52.578Z,17.80
2018-05-21T07:49:56.098Z,17.80
2018-05-21T07:51:59.617Z,17.90
2018-05-21T07:54:03.138Z,18.00
2018-05-21T07:56:06.639Z,17.90
2018-05-21T07:58:10.957Z,18.10
2018-05-21T08:00:15.221Z,18.10
2018-05-21T08:02:18.748Z,18.10
2018-05-21T08:04:23.070Z,18.40
2018-05-21T08:06:26.584Z,18.30
2018-05-21T08:08:31.077Z,18.40
2018-05-21T08:10:35.290Z,18.40
2018-05-21T08:12:38.991Z,18.40
2018-05-21T08:14:43.166Z,18.50
2018-05-21T08:16:47.132Z,18.50
2018-05-21T08:18:50.659Z,18.60
2018-05-21T08:20:54.165Z,18.50
2018-05-21T08:22:57.693Z,18.60
2018-05-21T08:25:01.801Z,18.80
2018-05-21T08:27:05.684Z,18.80
2018-05-21T08:29:09.993Z,18.80
2018-05-21T08:31:13.502Z,18.80
2018-05-21T08:33:16.993Z,18.80
2018-05-21T08:35:30.744Z,18.90
2018-05-21T08:37:46.021Z,18.80
2018-05-21T08:40:01.633Z,18.80
2018-05-21T08:42:11.144Z,19.10
2018-05-21T08:44:14.666Z,19.20
2018-05-21T08:46:18.139Z,19.30
2018-05-21T08:48:21.739Z,19.40
2018-05-21T08:50:26.095Z,19.40
2018-05-21T08:52:29.567Z,19.40
2018-05-21T08:54:33.087Z,19.70
2018-05-21T08:56:36.659Z,19.60
2018-05-21T08:58:40.106Z,19.70
2018-05-21T09:00:44.361Z,19.70
2018-05-21T09:02:48.300Z,19.70
2018-05-21T09:04:52.526Z,19.80
2018-05-21T09:06:56.756Z,19.70
2018-05-21T09:09:01.039Z,19.90
2018-05-21T09:11:05.369Z,20.00
2018-05-21T09:13:08.871Z,19.90
2018-05-21T09:15:12.376Z,20.10
2018-05-21T09:17:15.891Z,20.00
2018-05-21T09:19:19.423Z,20.10
2018-05-21T09:21:22.867Z,20.10
2018-05-21T09:23:26.385Z,20.10
2018-05-21T09:25:29.921Z,20.10
2018-05-21T09:27:33.465Z,20.10
2018-05-21T09:29:37.049Z,20.30
2018-05-21T09:31:40.584Z,20.60
2018-05-21T09:33:44.091Z,20.60
2018-05-21T09:35:47.585Z,20.60
2018-05-21T09:37:51.075Z,20.60
2018-05-21T09:39:54.571Z,20.60
2018-05-21T09:41:58.115Z,20.50
2018-05-21T09:44:01.523Z,20.60
2018-05-21T09:46:05.070Z,20.70
2018-05-21T09:48:08.702Z,20.70
2018-05-21T09:50:12.725Z,20.90
2018-05-21T09:52:16.234Z,20.90
2018-05-21T09:54:19.715Z,20.70
2018-05-21T09:56:23.303Z,20.90
2018-05-21T09:58:26.767Z,21.00
2018-05-21T10:00:30.724Z,21.00
2018-05-21T10:02:34.250Z,21.00
2018-05-21T10:04:44.262Z,21.10
2018-05-21T10:06:50.931Z,21.20
2018-05-21T10:08:54.984Z,21.10
2018-05-21T10:10:58.890Z,21.30
2018-05-21T10:13:03.697Z,21.40
2018-05-21T10:15:08.674Z,21.40
2018-05-21T10:17:13.657Z,21.30
2018-05-21T10:19:17.195Z,21.20
2018-05-21T10:21:22.529Z,21.10
2018-05-21T10:23:26.975Z,21.10
2018-05-21T10:25:30.742Z,21.30
2018-05-21T10:27:35.403Z,21.10
2018-05-21T10:29:39.526Z,21.10
2018-05-21T10:31:44.759Z,21.10
2018-05-21T10:33:48.644Z,21.50
2018-05-21T10:35:52.393Z,21.50
2018-05-21T10:37:59.422Z,21.60
2018-05-21T10:40:03.886Z,21.70
2018-05-21T10:42:10.766Z,21.90
2018-05-21T10:44:14.927Z,21.90
2018-05-21T10:46:19.295Z,21.90
2018-05-21T10:48:24.217Z,22.00
2018-05-21T10:50:28.791Z,22.00
2018-05-21T10:52:32.278Z,21.80
2018-05-21T10:54:35.773Z,21.90
2018-05-21T10:56:39.267Z,22.10
2018-05-21T10:58:42.795Z,22.00
2018-05-21T11:00:46.376Z,22.10
2018-05-21T11:02:49.838Z,22.00
2018-05-21T11:04:53.300Z,22.00
2018-05-21T11:06:56.843Z,21.90
2018-05-21T11:09:00.349Z,21.90
2018-05-21T11:11:03.839Z,22.20
2018-05-21T11:13:08.057Z,22.40
2018-05-21T11:15:11.674Z,22.40
2018-05-21T11:17:15.172Z,22.40
2018-05-21T11:19:18.627Z,22.50
2018-05-21T11:21:22.154Z,22.60
2018-05-21T11:23:25.603Z,22.60
2018-05-21T11:25:29.068Z,22.70
2018-05-21T11:27:33.835Z,22.50
2018-05-21T11:29:37.602Z,22.50
2018-05-21T11:31:42.540Z,22.70
2018-05-21T11:33:46.478Z,22.70
2018-05-21T11:35:50.174Z,23.00
2018-05-21T11:37:54.939Z,23.10
2018-05-21T11:39:58.580Z,23.10
2018-05-21T11:42:02.046Z,23.40
2018-05-21T11:44:06.308Z,23.50
2018-05-21T11:46:09.856Z,23.40
2018-05-21T11:48:14.490Z,23.40
2018-05-21T11:50:18.659Z,23.30
2018-05-21T11:52:22.452Z,23.40
2018-05-21T11:54:26.186Z,23.20
2018-05-21T11:56:29.736Z,23.20
2018-05-21T11:58:33.245Z,23.20
2018-05-21T12:00:37.697Z,23.30
2018-05-21T12:02:42.019Z,24.10
2018-05-21T12:04:47.387Z,23.90
2018-05-21T12:06:51.030Z,23.80
2018-05-21T12:08:55.729Z,24.10
2018-05-21T12:10:59.469Z,23.80
2018-05-21T12:13:03.729Z,24.30
2018-05-21T12:15:07.215Z,24.30
2018-05-21T12:17:10.706Z,24.60
2018-05-21T12:19:14.208Z,24.50
2018-05-21T12:21:17.742Z,24.80
2018-05-21T12:23:21.343Z,24.40
2018-05-21T12:25:24.798Z,25.30
2018-05-21T12:27:28.312Z,24.90
2018-05-21T12:29:31.794Z,24.40
2018-05-21T12:31:35.251Z,25.20
2018-05-21T12:33:38.777Z,25.10
2018-05-21T12:35:42.654Z,25.40
2018-05-21T12:37:47.023Z,25.60
2018-05-21T12:39:50.647Z,25.60
2018-05-21T12:41:54.118Z,25.50
2018-05-21T12:43:57.593Z,25.50
2018-05-21T12:46:01.112Z,25.90
2018-05-21T12:48:05.425Z,26.30
2018-05-21T12:50:08.922Z,26.30
2018-05-21T12:52:12.412Z,26.10
2018-05-21T12:54:17.191Z,26.40
2018-05-21T12:56:20.715Z,26.30
2018-05-21T12:58:24.197Z,26.40
2018-05-21T13:00:28.106Z,26.80
2018-05-21T13:02:31.589Z,26.60
2018-05-21T13:04:35.067Z,27.40
2018-05-21T13:06:38.588Z,27.70
2018-05-21T13:08:42.035Z,27.30
2018-05-21T13:10:45.999Z,27.90
2018-05-21T13:12:49.507Z,28.00
2018-05-21T13:14:53.046Z,28.40
2018-05-21T13:16:56.578Z,27.60
2018-05-21T13:19:00.058Z,28.10
2018-05-21T13:21:03.530Z,28.30
2018-05-21T13:23:07.038Z,28.70
2018-05-21T13:25:10.691Z,28.80
2018-05-21T13:27:14.874Z,28.50
2018-05-21T13:29:18.352Z,29.00
2018-05-21T13:31:21.888Z,29.20
2018-05-21T13:33:25.438Z,29.00
2018-05-21T13:35:29.163Z,28.90
2018-05-21T13:37:33.444Z,29.20
2018-05-21T13:39:37.340Z,29.10
2018-05-21T13:41:40.789Z,29.70
2018-05-21T13:43:45.013Z,29.70
2018-05-21T13:45:49.261Z,29.60
2018-05-21T13:47:52.743Z,29.60
2018-05-21T13:49:56.349Z,29.50
2018-05-21T13:51:59.810Z,29.40
2018-05-21T13:54:03.295Z,29.60
2018-05-21T13:56:07.565Z,28.80
2018-05-21T13:58:11.042Z,28.80
2018-05-21T14:00:14.563Z,29.40
2018-05-21T14:02:18.047Z,29.70
2018-05-21T14:04:21.593Z,29.90
2018-05-21T14:06:25.907Z,31.20
2018-05-21T14:08:30.188Z,30.40
2018-05-21T14:10:33.759Z,30.40
2018-05-21T14:12:38.077Z,29.40
2018-05-21T14:14:41.486Z,29.30
2018-05-21T14:16:45.027Z,30.80
2018-05-21T14:18:48.503Z,30.80
2018-05-21T14:20:52.109Z,30.20
2018-05-21T14:22:56.317Z,30.40
2018-05-21T14:25:00.691Z,30.40
2018-05-21T14:27:04.914Z,31.20
2018-05-21T14:29:08.517Z,31.20
2018-05-21T14:31:12.935Z,31.00
2018-05-21T14:33:16.417Z,31.50
2018-05-21T14:35:20.294Z,30.80
2018-05-21T14:37:23.813Z,31.20
2018-05-21T14:39:27.280Z,31.60
2018-05-21T14:41:30.818Z,31.10
2018-05-21T14:43:34.424Z,30.50
2018-05-21T14:45:38.695Z,31.00
2018-05-21T14:47:42.193Z,30.90
2018-05-21T14:49:45.698Z,30.90
2018-05-21T14:51:49.168Z,30.40
2018-05-21T14:53:52.710Z,30.80
2018-05-21T14:55:56.194Z,31.30
2018-05-21T14:58:00.431Z,32.20
2018-05-21T15:00:03.979Z,32.10
2018-05-21T15:02:07.656Z,31.10
2018-05-21T15:04:11.081Z,31.10
2018-05-21T15:06:14.794Z,31.80
2018-05-21T15:08:18.715Z,31.80
2018-05-21T15:10:22.983Z,31.40
2018-05-21T15:12:26.484Z,31.40
2018-05-21T15:14:30.019Z,31.80
2018-05-21T15:16:33.482Z,31.30
2018-05-21T15:18:36.950Z,31.30
2018-05-21T15:20:40.856Z,30.80
2018-05-21T15:22:44.322Z,32.30
2018-05-21T15:24:47.796Z,32.00
2018-05-21T15:26:52.179Z,31.90
2018-05-21T15:28:55.650Z,31.90
2018-05-21T15:30:59.146Z,32.60
2018-05-21T15:33:02.679Z,33.10
2018-05-21T15:35:06.202Z,33.60
2018-05-21T15:37:09.703Z,33.20
2018-05-21T15:39:13.231Z,33.20
2018-05-21T15:41:16.726Z,32.40
2018-05-21T15:43:20.267Z,32.40
2018-05-21T15:45:23.748Z,32.50
2018-05-21T15:47:28.035Z,33.40
2018-05-21T15:49:31.510Z,33.40
2018-05-21T15:51:35.266Z,33.00
2018-05-21T15:53:38.720Z,31.80
2018-05-21T15:55:42.197Z,32.20
2018-05-21T15:57:45.717Z,32.70
2018-05-21T15:59:49.972Z,32.80
2018-05-21T16:01:54.248Z,32.50
2018-05-21T16:03:57.764Z,32.50
2018-05-21T16:06:02.054Z,34.70
2018-05-21T16:08:05.643Z,34.60
2018-05-21T16:10:09.184Z,34.40
2018-05-21T16:12:12.729Z,33.60
2018-05-21T16:14:16.268Z,31.90
2018-05-21T16:16:20.542Z,32.50
2018-05-21T16:18:24.044Z,32.80
2018-05-21T16:20:27.585Z,32.80
2018-05-21T16:22:31.806Z,32.70
2018-05-21T16:24:35.319Z,32.60
2018-05-21T16:26:38.824Z,33.30
2018-05-21T16:28:42.270Z,33.40
2018-05-21T16:30:46.575Z,32.00
2018-05-21T16:32:50.795Z,30.80
2018-05-21T16:34:55.055Z,31.60
2018-05-21T16:36:58.585Z,31.60
2018-05-21T16:39:02.100Z,30.80
2018-05-21T16:41:05.695Z,31.30
2018-05-21T16:43:09.940Z,31.90
2018-05-21T16:45:13.452Z,31.90
2018-05-21T16:47:16.986Z,32.50
2018-05-21T16:49:21.273Z,32.90
2018-05-21T16:51:24.835Z,32.90
2018-05-21T16:53:28.374Z,32.30
2018-05-21T16:55:31.900Z,31.10
2018-05-21T16:57:35.445Z,29.60
2018-05-21T16:59:39.031Z,29.70
2018-05-21T17:01:42.530Z,30.90
2018-05-21T17:03:46.144Z,30.60
2018-05-21T17:05:49.643Z,30.20
2018-05-21T17:07:53.109Z,30.40
2018-05-21T17:09:56.638Z,30.20
2018-05-21T17:12:00.111Z,29.90
2018-05-21T17:14:04.723Z,30.60
2018-05-21T17:16:08.166Z,30.30
2018-05-21T17:18:11.646Z,29.70
2018-05-21T17:20:15.944Z,28.10
2018-05-21T17:22:19.571Z,28.10
2018-05-21T17:24:23.793Z,26.80
2018-05-21T17:26:28.052Z,27.20
2018-05-21T17:28:31.583Z,27.20
2018-05-21T17:30:35.055Z,26.60
2018-05-21T17:32:38.543Z,26.30
2018-05-21T17:34:42.084Z,25.80
2018-05-21T17:36:45.587Z,26.10
2018-05-21T17:38:49.120Z,25.50
2018-05-21T17:40:52.562Z,25.40
2018-05-21T17:42:56.835Z,25.00
2018-05-21T17:45:00.309Z,24.90
2018-05-21T17:47:03.820Z,25.20
2018-05-21T17:49:07.311Z,24.80
2018-05-21T17:51:11.664Z,25.10
2018-05-21T17:53:15.924Z,25.00
2018-05-21T17:55:19.462Z,25.00
2018-05-21T17:57:22.928Z,25.00
2018-05-21T17:59:26.480Z,24.40
2018-05-21T18:01:30.034Z,24.30
2018-05-21T18:03:33.486Z,24.10
2018-05-21T18:05:37.014Z,23.90
2018-05-21T18:07:40.559Z,24.20
2018-05-21T18:09:44.037Z,23.90
2018-05-21T18:11:47.527Z,24.60
2018-05-21T18:13:51.802Z,24.40
2018-05-21T18:15:55.247Z,24.30
2018-05-21T18:17:58.753Z,23.90
2018-05-21T18:20:02.312Z,23.70
2018-05-21T18:22:05.829Z,24.00
2018-05-21T18:24:10.084Z,24.30
2018-05-21T18:26:13.619Z,24.30
2018-05-21T18:28:17.138Z,23.90
2018-05-21T18:30:20.702Z,23.70
2018-05-21T18:32:24.590Z,23.80
2018-05-21T18:34:28.031Z,23.50
2018-05-21T18:36:32.440Z,23.90
2018-05-21T18:38:36.580Z,23.90
2018-05-21T18:40:40.071Z,24.20
2018-05-21T18:42:43.594Z,24.00
2018-05-21T18:44:47.119Z,23.90
2018-05-21T18:46:51.462Z,23.80
2018-05-21T18:48:54.930Z,23.80
2018-05-21T18:50:58.437Z,23.30
2018-05-21T18:53:02.736Z,23.50
2018-05-21T18:55:06.263Z,23.50
2018-05-21T18:57:09.889Z,23.40
2018-05-21T18:59:13.336Z,23.20
2018-05-21T19:01:17.593Z,23.10
2018-05-21T19:03:21.086Z,23.10
2018-05-21T19:05:24.554Z,23.20
2018-05-21T19:07:28.029Z,23.30
2018-05-21T19:09:32.411Z,23.20
2018-05-21T19:11:35.855Z,23.20
2018-05-21T19:13:39.368Z,23.40
2018-05-21T19:15:42.921Z,23.40
2018-05-21T19:17:47.201Z,22.80
2018-05-21T19:19:50.702Z,22.80
2018-05-21T19:21:54.221Z,23.10
2018-05-21T19:23:58.497Z,23.10
2018-05-21T19:26:02.043Z,23.10
2018-05-21T19:28:05.520Z,23.20
2018-05-21T19:30:08.983Z,23.00
2018-05-21T19:32:12.509Z,23.20
2018-05-21T19:34:16.787Z,22.80
2018-05-21T19:36:20.366Z,22.80
2018-05-21T19:38:23.864Z,22.60
2018-05-21T19:40:27.340Z,22.60
2018-05-21T19:42:30.858Z,22.30
2018-05-21T19:44:34.309Z,22.40
2018-05-21T19:46:38.688Z,22.40
2018-05-21T19:48:42.855Z,22.30
2018-05-21T19:50:46.407Z,22.20
2018-05-21T19:52:50.687Z,22.20
2018-05-21T19:54:54.191Z,22.20
2018-05-21T19:56:57.685Z,22.30
2018-05-21T19:59:01.240Z,22.00
2018-05-21T20:01:04.728Z,21.90
2018-05-21T20:03:08.356Z,21.80
2018-05-21T20:05:11.859Z,21.70
2018-05-21T20:07:15.464Z,21.50
2018-05-21T20:09:18.959Z,21.70
2018-05-21T20:11:22.433Z,21.60
2018-05-21T20:13:26.092Z,21.60
2018-05-21T20:15:34.800Z,21.40
2018-05-21T20:17:43.363Z,21.20
2018-05-21T20:19:46.867Z,21.30
2018-05-21T20:21:50.467Z,21.30
2018-05-21T20:23:54.802Z,20.90
2018-05-21T20:25:59.250Z,21.10
2018-05-21T20:28:03.690Z,21.10
2018-05-21T20:30:07.193Z,21.10
2018-05-21T20:32:11.602Z,21.30
2018-05-21T20:34:16.910Z,21.20
2018-05-21T20:36:20.566Z,21.30
2018-05-21T20:38:25.370Z,21.10
2018-05-21T20:40:29.239Z,21.10
2018-05-21T20:42:33.576Z,21.20
2018-05-21T20:44:37.152Z,21.40
2018-05-21T20:46:41.671Z,20.80
2018-05-21T20:48:46.992Z,20.70
2018-05-21T20:50:51.493Z,20.60
2018-05-21T20:52:56.395Z,20.20
2018-05-21T20:55:00.761Z,20.20
2018-05-21T20:57:04.338Z,20.40
2018-05-21T20:59:08.646Z,19.90
2018-05-21T21:01:20.333Z,19.90
2018-05-21T21:03:25.423Z,19.80
2018-05-21T21:05:29.039Z,19.90
2018-05-21T21:07:33.032Z,19.60
2018-05-21T21:09:36.556Z,19.90
2018-05-21T21:11:40.051Z,19.80
2018-05-21T21:13:43.596Z,19.80
2018-05-21T21:15:47.861Z,19.90
2018-05-21T21:17:51.343Z,19.90
2018-05-21T21:19:54.911Z,19.90
2018-05-21T21:21:58.386Z,20.10
2018-05-21T21:24:01.936Z,19.70
2018-05-21T21:26:05.587Z,19.50
2018-05-21T21:28:09.062Z,19.70
2018-05-21T21:30:12.550Z,20.40
2018-05-21T21:32:17.317Z,20.50
2018-05-21T21:34:20.782Z,20.50
2018-05-21T21:36:24.266Z,20.00
2018-05-21T21:38:28.562Z,19.60
2018-05-21T21:40:32.007Z,19.60
2018-05-21T21:42:35.466Z,19.60
2018-05-21T21:44:39.748Z,19.50
2018-05-21T21:46:43.206Z,19.50
2018-05-21T21:48:47.128Z,19.30
2018-05-21T21:50:50.638Z,18.70
2018-05-21T21:52:54.169Z,19.20
2018-05-21T21:54:58.413Z,19.40
2018-05-21T21:57:01.938Z,19.30
2018-05-21T21:59:05.470Z,19.70
2018-05-21T22:01:08.967Z,19.40
2018-05-21T22:03:13.332Z,19.40
2018-05-21T22:05:16.781Z,19.40
2018-05-21T22:07:20.331Z,19.00
2018-05-21T22:09:23.918Z,19.00
2018-05-21T22:11:28.214Z,19.10
2018-05-21T22:13:31.722Z,19.10
2018-05-21T22:15:35.267Z,19.10
2018-05-21T22:17:38.715Z,18.90
2018-05-21T22:19:42.187Z,18.80
2018-05-21T22:21:45.715Z,18.70
2018-05-21T22:23:49.211Z,18.60
2018-05-21T22:25:52.684Z,18.50
2018-05-21T22:27:57.731Z,18.40
2018-05-21T22:30:01.276Z,18.40
2018-05-21T22:32:04.827Z,18.50
2018-05-21T22:34:09.136Z,18.50
2018-05-21T22:36:12.605Z,18.50
2018-05-21T22:38:16.090Z,18.80
2018-05-21T22:40:20.322Z,18.30
2018-05-21T22:42:23.995Z,18.20
2018-05-21T22:44:28.269Z,18.00
2018-05-21T22:46:31.759Z,18.00
2018-05-21T22:48:36.005Z,18.00
2018-05-21T22:50:39.607Z,18.00
2018-05-21T22:52:43.889Z,18.20
2018-05-21T22:54:48.112Z,18.20
2018-05-21T22:56:52.388Z,18.30
2018-05-21T22:58:55.874Z,18.20
2018-05-21T23:01:00.113Z,17.90
2018-05-21T23:03:03.664Z,17.90
2018-05-21T23:05:07.174Z,17.90
2018-05-21T23:07:10.672Z,18.10
2018-05-21T23:09:14.988Z,18.10
2018-05-21T23:11:18.455Z,18.10
2018-05-21T23:13:22.072Z,17.90
2018-05-21T23:15:25.589Z,17.80
2018-05-21T23:17:29.832Z,17.70
2018-05-21T23:19:33.441Z,17.70
2018-05-21T23:21:37.890Z,17.80
2018-05-21T23:23:42.719Z,17.90
2018-05-21T23:25:47.004Z,17.90
2018-05-21T23:27:50.492Z,17.90
2018-05-21T23:29:54.077Z,17.90
2018-05-21T23:31:58.303Z,18.20
2018-05-21T23:34:01.788Z,18.20
2018-05-21T23:36:05.334Z,18.30
2018-05-21T23:38:08.891Z,18.60
2018-05-21T23:40:13.173Z,18.80
2018-05-21T23:42:17.445Z,19.00
2018-05-21T23:44:20.979Z,19.00
2018-05-21T23:46:25.249Z,18.50
2018-05-21T23:48:28.919Z,18.50
2018-05-21T23:50:32.400Z,18.20
2018-05-21T23:52:35.870Z,18.00
2018-05-21T23:54:40.207Z,17.80
2018-05-21T23:56:44.475Z,17.70
2018-05-21T23:58:47.946Z,17.70
